Time;durP1;ratioP1;P1;durP2;ratioP2;P2;SDS_P1;SDS_P2;PMS_P1;PMS_P2;Temp;Humidity;BMP_temperature;BMP_pressure;BME280_temperature;BME280_humidity;BME280_pressure;Samples;Min_cycle;Max_cycle;Signal;HPM_P1;HPM_P2
2024/02/12 00:00:44;;;;;;;;;;;;;;;5.42;100.00;97918.41;5013990;28;21180;-86
2024/02/12 00:03:09;;;;;;;;;;;;;;;5.50;100.00;97920.63;5013485;28;19918;-86
2024/02/12 00:05:35;;;;;;;;;;;;;;;5.47;100.00;97916.38;5013929;28;20297;-86
2024/02/12 00:08:04;;;;;;;;;;;;;;;5.48;100.00;97923.34;5004126;28;19978;-88
2024/02/12 00:10:29;;;;;;;;;;;;;;;5.50;100.00;97918.84;5013772;28;19943;-88
2024/02/12 00:12:55;;;;;;;;;;;;;;;5.49;100.00;97935.56;5012514;28;19924;-86
2024/02/12 00:15:21;;;;;;;;;;;;;;;5.52;100.00;97934.53;5014137;28;19921;-88
2024/02/12 00:17:47;;;;;;;;;;;;;;;5.48;100.00;97933.00;5013577;28;19921;-87
2024/02/12 00:20:12;;;;;;;;;;;;;;;5.46;100.00;97943.59;5013632;28;19921;-87
2024/02/12 00:22:39;;;;;;;;;;;;;;;5.49;100.00;97943.44;5013393;28;19920;-87
2024/02/12 00:25:05;;;;;;;;;;;;;;;5.47;100.00;97950.53;5003144;28;19944;-87
2024/02/12 00:27:31;;;;;;;;;;;;;;;5.44;100.00;97948.06;5012439;28;19918;-86
2024/02/12 00:29:56;;;;;;;;;;;;;;;5.45;100.00;97945.34;5013312;28;20377;-88
2024/02/12 00:32:22;;;;;;;;;;;;;;;5.43;100.00;97952.47;5013331;28;20004;-87
2024/02/12 00:34:47;;;;;;;;;;;;;;;5.51;100.00;97953.88;5013521;28;19914;-86
2024/02/12 00:37:13;;;;;;;;;;;;;;;5.42;100.00;97961.28;5013466;28;19922;-86
2024/02/12 00:39:38;;;;;;;;;;;;;;;5.38;100.00;97964.16;5012785;28;19924;-85
2024/02/12 00:42:08;;;;;;;;;;;;;;;5.42;100.00;97963.91;5013402;28;19922;-86
2024/02/12 00:44:36;;;;;;;;;;;;;;;5.42;100.00;97970.94;5012340;28;20644;-86
2024/02/12 00:47:03;;;;;;;;;;;;;;;5.40;100.00;97970.19;5012948;28;19917;-92
2024/02/12 00:49:29;;;;;;;;;;;;;;;5.40;100.00;97976.28;5012942;28;19921;-85
2024/02/12 00:51:55;;;;;;;;;;;;;;;5.39;100.00;97973.72;5013341;28;19922;-87
2024/02/12 00:54:20;;;;;;;;;;;;;;;5.43;100.00;97989.25;5013095;28;19917;-86
2024/02/12 00:56:47;;;;;;;;;;;;;;;5.42;100.00;97989.31;5012692;28;19933;-85
2024/02/12 00:59:16;;;;;;;;;;;;;;;5.40;100.00;97994.66;5011464;28;20373;-86
2024/02/12 01:01:41;;;;;;;;;;;;;;;5.37;100.00;97997.44;5012729;28;19983;-85
2024/02/12 01:04:07;;;;;;;;;;;;;;;5.44;100.00;98000.59;5012605;28;19952;-85
2024/02/12 01:06:33;;;;;;;;;;;;;;;5.44;100.00;98011.09;5012596;28;20360;-84
2024/02/12 01:08:58;;;;;;;;;;;;;;;5.44;100.00;98006.72;5012792;28;20063;-84
2024/02/12 01:11:23;;;;;;;;;;;;;;;5.45;100.00;98015.44;5012888;28;19980;-85
2024/02/12 01:13:49;;;;;;;;;;;;;;;5.45;100.00;98007.56;5011543;28;19997;-85
2024/02/12 01:16:18;;;;;;;;;;;;;;;5.47;100.00;98016.22;5011528;28;19917;-87
2024/02/12 01:18:43;;;;;;;;;;;;;;;5.44;100.00;98016.34;5012609;28;19917;-87
2024/02/12 01:21:08;;;;;;;;;;;;;;;5.40;100.00;98022.72;5012719;28;20427;-84
2024/02/12 01:23:34;;;;;;;;;;;;;;;5.48;100.00;98027.59;5012328;28;19925;-84
2024/02/12 01:25:59;;;;;;;;;;;;;;;5.46;100.00;98022.41;5012339;28;19917;-84
2024/02/12 01:28:25;;;;;;;;;;;;;;;5.53;100.00;98030.81;5001281;28;19917;-83
2024/02/12 01:30:50;;;;;;;;;;;;;;;5.52;100.00;98034.38;5012376;28;19948;-84
2024/02/12 01:33:16;;;;;;;;;;;;;;;5.44;100.00;98032.13;5012194;28;20368;-83
2024/02/12 01:35:41;;;;;;;;;;;;;;;5.43;100.00;98038.31;5011894;28;20041;-84
2024/02/12 01:38:08;;;;;;;;;;;;;;;5.44;100.00;98035.63;5012278;28;20355;-86
2024/02/12 01:40:34;;;;;;;;;;;;;;;5.42;100.00;98034.81;5002856;28;19975;-85
2024/02/12 01:42:59;;;;;;;;;;;;;;;5.48;100.00;98043.34;5010741;28;19961;-84
2024/02/12 01:45:26;;;;;;;;;;;;;;;5.48;100.00;98038.94;5011724;28;19949;-84
2024/02/12 01:47:57;;;;;;;;;;;;;;;5.48;100.00;98046.81;5012089;28;19922;-85
2024/02/12 01:50:23;;;;;;;;;;;;;;;5.45;100.00;98047.81;5001995;28;20269;-86
2024/02/12 01:52:48;;;;;;;;;;;;;;;5.50;100.00;98041.50;5011717;28;19925;-85
2024/02/12 01:55:17;;;;;;;;;;;;;;;5.41;100.00;98042.81;5011973;28;20343;-86
2024/02/12 01:57:46;;;;;;;;;;;;;;;5.38;100.00;98048.22;5010573;28;19929;-86
2024/02/12 02:00:11;;;;;;;;;;;;;;;5.41;100.00;98054.16;5011655;28;20439;-86
2024/02/12 02:02:43;;;;;;;;;;;;;;;5.44;100.00;98058.38;5001297;28;19921;-84
2024/02/12 02:05:08;;;;;;;;;;;;;;;5.48;100.00;98064.38;5011139;28;19917;-84
2024/02/12 02:07:33;;;;;;;;;;;;;;;5.42;100.00;98060.25;5011730;28;19924;-84
2024/02/12 02:09:58;;;;;;;;;;;;;;;5.36;100.00;98060.53;5011824;28;19964;-85
2024/02/12 02:12:25;;;;;;;;;;;;;;;5.40;100.00;98067.38;5010249;28;19940;-84
2024/02/12 02:14:51;;;;;;;;;;;;;;;5.41;100.00;98069.06;5011028;28;19926;-85
2024/02/12 02:17:20;;;;;;;;;;;;;;;5.50;100.00;98073.00;5011689;28;19926;-87
2024/02/12 02:19:48;;;;;;;;;;;;;;;5.40;100.00;98068.22;5011635;28;20276;-84
2024/02/12 02:22:16;;;;;;;;;;;;;;;5.40;100.00;98078.72;5011533;28;19964;-83
2024/02/12 02:24:41;;;;;;;;;;;;;;;5.45;100.00;98081.13;5000994;28;20340;-85
2024/02/12 02:27:07;;;;;;;;;;;;;;;5.40;100.00;98078.72;5011386;28;19918;-84
2024/02/12 02:29:32;;;;;;;;;;;;;;;5.39;100.00;98081.41;5010204;28;20373;-83
2024/02/12 02:31:57;;;;;;;;;;;;;;;5.41;100.00;98085.69;5011369;28;19925;-84
2024/02/12 02:34:23;;;;;;;;;;;;;;;5.39;100.00;98090.16;5011389;28;19968;-85
2024/02/12 02:36:48;;;;;;;;;;;;;;;5.40;100.00;98088.38;5011190;28;20337;-84
2024/02/12 02:39:14;;;;;;;;;;;;;;;5.36;100.00;98092.94;5011093;28;19917;-85
2024/02/12 02:41:45;;;;;;;;;;;;;;;5.35;100.00;98098.25;5011305;28;19917;-86
2024/02/12 02:44:11;;;;;;;;;;;;;;;5.44;100.00;98092.53;5009871;28;19921;-87
2024/02/12 02:46:36;;;;;;;;;;;;;;;5.38;100.00;98090.25;5001119;28;19929;-85
2024/02/12 02:49:03;;;;;;;;;;;;;;;5.37;100.00;98088.53;5011200;28;19917;-84
2024/02/12 02:51:29;;;;;;;;;;;;;;;5.39;100.00;98102.44;5001131;28;20004;-84
2024/02/12 02:53:55;;;;;;;;;;;;;;;5.40;100.00;98093.63;5011301;28;20004;-84
2024/02/12 02:56:21;;;;;;;;;;;;;;;5.38;100.00;98092.88;5000549;28;20008;-84
2024/02/12 02:58:47;;;;;;;;;;;;;;;5.48;100.00;98095.88;4999572;28;20532;-84
2024/02/12 03:01:13;;;;;;;;;;;;;;;5.45;100.00;98096.88;5010663;28;20364;-85
2024/02/12 03:03:38;;;;;;;;;;;;;;;5.41;100.00;98100.59;5001050;28;19928;-84
2024/02/12 03:06:05;;;;;;;;;;;;;;;5.41;100.00;98104.06;5010905;28;19921;-85
2024/02/12 03:08:33;;;;;;;;;;;;;;;5.43;100.00;98096.13;5011217;28;19913;-84
2024/02/12 03:11:01;;;;;;;;;;;;;;;5.37;100.00;98101.66;5010929;28;19976;-85
2024/02/12 03:13:26;;;;;;;;;;;;;;;5.43;100.00;98104.00;5009890;28;19980;-84
2024/02/12 03:15:51;;;;;;;;;;;;;;;5.38;100.00;98104.22;5010845;28;19914;-84
2024/02/12 03:18:20;;;;;;;;;;;;;;;5.39;100.00;98103.28;5011091;28;19963;-84
2024/02/12 03:20:45;;;;;;;;;;;;;;;5.37;100.00;98110.38;5010271;28;20328;-85
2024/02/12 03:23:11;;;;;;;;;;;;;;;5.34;100.00;98114.94;5010754;28;19933;-84
2024/02/12 03:25:36;;;;;;;;;;;;;;;5.41;100.00;98116.34;5011501;28;20557;-84
2024/02/12 03:28:03;;;;;;;;;;;;;;;5.40;100.00;98115.50;5013480;28;20313;-84
2024/02/12 03:30:28;;;;;;;;;;;;;;;5.32;100.00;98109.75;5014801;28;20052;-83
2024/02/12 03:32:54;;;;;;;;;;;;;;;5.33;100.00;98121.97;5014445;28;20372;-83
2024/02/12 03:35:20;;;;;;;;;;;;;;;5.36;100.00;98119.22;5004279;28;19921;-83
2024/02/12 03:37:45;;;;;;;;;;;;;;;5.36;100.00;98123.59;5014553;28;19928;-85
2024/02/12 03:40:12;;;;;;;;;;;;;;;5.35;100.00;98132.41;5004265;28;19917;-84
2024/02/12 03:42:37;;;;;;;;;;;;;;;5.35;100.00;98133.25;5013128;28;20000;-84
2024/02/12 03:45:05;;;;;;;;;;;;;;;5.35;100.00;98132.41;5014060;28;20281;-85
2024/02/12 03:47:38;;;;;;;;;;;;;;;5.31;100.00;98133.47;5014464;28;20919;-84
2024/02/12 04:01:00;;;;;;;;;;;;;;;5.26;100.00;98139.81;5005418;28;19947;-85
2024/02/12 04:03:25;;;;;;;;;;;;;;;5.34;100.00;98143.84;5014441;28;19917;-85
2024/02/12 04:05:50;;;;;;;;;;;;;;;5.32;100.00;98148.31;5004118;28;19925;-85
2024/02/12 04:08:16;;;;;;;;;;;;;;;5.28;100.00;98151.09;5013995;28;19921;-83
2024/02/12 04:10:42;;;;;;;;;;;;;;;5.30;100.00;98152.75;5013722;28;20765;-83
2024/02/12 04:13:07;;;;;;;;;;;;;;;5.31;100.00;98152.69;5011897;28;20019;-84
2024/02/12 04:15:38;;;;;;;;;;;;;;;5.25;100.00;98151.22;5013917;28;20316;-84
2024/02/12 04:18:06;;;;;;;;;;;;;;;5.32;100.00;98159.66;5013374;28;20365;-84
2024/02/12 04:20:31;;;;;;;;;;;;;;;5.23;100.00;98158.34;5013709;28;20404;-84
2024/02/12 04:22:56;;;;;;;;;;;;;;;5.27;100.00;98154.63;5013791;28;19996;-84
2024/02/12 04:25:23;;;;;;;;;;;;;;;5.26;100.00;98159.94;5013652;28;19960;-84
2024/02/12 04:27:50;;;;;;;;;;;;;;;5.24;100.00;98162.63;5011957;28;20012;-85
2024/02/12 04:30:16;;;;;;;;;;;;;;;5.26;100.00;98165.19;5013597;28;19918;-84
2024/02/12 04:32:41;;;;;;;;;;;;;;;5.18;100.00;98167.34;5013726;28;19927;-85
2024/02/12 04:35:07;;;;;;;;;;;;;;;5.27;100.00;98173.00;5013571;28;19928;-85
2024/02/12 04:37:33;;;;;;;;;;;;;;;5.23;100.00;98174.09;5012778;28;20294;-85
2024/02/12 04:39:58;;;;;;;;;;;;;;;5.26;100.00;98175.69;5013534;28;19918;-84
2024/02/12 08:57:34;;;;;;;;;;;;;;;5.16;100.00;98471.16;5010257;28;20386;-85
2024/02/12 08:59:59;;;;;;;;;;;;;;;5.24;100.00;98475.16;5012411;28;19925;-84
2024/02/12 09:02:26;;;;;;;;;;;;;;;5.26;100.00;98478.59;4995552;28;19932;-83
2024/02/12 09:04:52;;;;;;;;;;;;;;;5.22;100.00;98486.66;4995359;28;19947;-85
2024/02/12 09:07:17;;;;;;;;;;;;;;;5.23;100.00;98483.97;5012868;28;20364;-84
2024/02/12 09:09:42;;;;;;;;;;;;;;;5.23;100.00;98490.97;5012075;28;19928;-84
2024/02/12 09:12:07;;;;;;;;;;;;;;;5.22;100.00;98498.03;5013095;28;20300;-84
2024/02/12 09:14:35;;;;;;;;;;;;;;;5.21;100.00;98498.09;5013238;28;19972;-85
2024/02/12 09:17:00;;;;;;;;;;;;;;;5.19;100.00;98498.16;4994347;28;20438;-85
2024/02/12 09:19:26;;;;;;;;;;;;;;;5.21;100.00;98495.47;5013392;28;19968;-87
2024/02/12 09:21:52;;;;;;;;;;;;;;;5.22;100.00;98507.69;5013415;28;20360;-84
2024/02/12 09:24:18;;;;;;;;;;;;;;;5.20;100.00;98499.00;5011498;28;19922;-84
2024/02/12 09:26:43;;;;;;;;;;;;;;;5.24;100.00;98509.31;4995450;28;19921;-85
2024/02/12 09:29:08;;;;;;;;;;;;;;;5.23;100.00;98506.75;5012934;28;19928;-82
2024/02/12 09:31:33;;;;;;;;;;;;;;;5.24;100.00;98503.22;5013411;28;19917;-83
2024/02/12 09:34:02;;;;;;;;;;;;;;;5.24;100.00;98505.84;5012743;28;19932;-84
2024/02/12 09:36:28;;;;;;;;;;;;;;;5.26;100.00;98504.88;5003628;28;19917;-83
2024/02/12 09:38:53;;;;;;;;;;;;;;;5.21;100.00;98504.19;5012288;28;19944;-84
2024/02/12 09:41:22;;;;;;;;;;;;;;;5.25;100.00;98505.78;5012630;28;19921;-84
2024/02/12 09:43:47;;;;;;;;;;;;;;;7.61;100.00;98488.78;5012524;28;19925;-79
2024/02/12 09:46:13;;;;;;;;;;;;;;;5.96;100.00;98497.50;5013256;28;20019;-83
2024/02/12 09:48:40;;;;;;;;;;;;;;;5.64;100.00;98512.88;5011327;28;19927;-84
2024/02/12 09:51:05;;;;;;;;;;;;;;;5.55;100.00;98509.78;5012208;28;20012;-83
2024/02/12 09:53:31;;;;;;;;;;;;;;;5.48;100.00;98517.09;5012568;28;20428;-82
2024/02/12 09:55:56;;;;;;;;;;;;;;;5.40;100.00;98521.81;5011589;28;19921;-82
2024/02/12 09:58:21;;;;;;;;;;;;;;;5.46;100.00;98511.06;4994738;28;20007;-83
2024/02/12 10:00:47;;;;;;;;;;;;;;;5.44;100.00;98515.50;4993801;28;20020;-83
2024/02/12 10:03:13;;;;;;;;;;;;;;;5.41;100.00;98518.28;4994781;28;19918;-84
2024/02/12 10:05:39;;;;;;;;;;;;;;;5.50;100.00;98522.28;4994840;28;19917;-84
2024/02/12 10:08:16;;;;;;;;;;;;;;;5.42;100.00;98525.22;4994315;28;20433;-84
2024/02/12 10:10:41;;;;;;;;;;;;;;;5.39;100.00;98527.97;5001532;28;20383;-83
2024/02/12 10:13:07;;;;;;;;;;;;;;;5.39;100.00;98530.59;5012680;28;20020;-83
2024/02/12 10:15:33;;;;;;;;;;;;;;;5.38;100.00;98529.75;4994281;28;20405;-82
2024/02/12 10:17:59;;;;;;;;;;;;;;;5.37;100.00;98535.06;4994368;28;19968;-82
2024/02/12 10:20:25;;;;;;;;;;;;;;;5.35;100.00;98542.16;4993779;28;20012;-82
2024/02/12 10:22:50;;;;;;;;;;;;;;;5.31;100.00;98536.16;4994604;28;20291;-82
2024/02/12 10:25:19;;;;;;;;;;;;;;;5.31;100.00;98535.31;4993117;28;19921;-83
2024/02/12 10:27:44;;;;;;;;;;;;;;;5.29;100.00;98538.00;5011250;28;19928;-83
2024/02/12 10:30:10;;;;;;;;;;;;;;;5.35;100.00;98540.38;5012439;28;19921;-82
2024/02/12 10:32:37;;;;;;;;;;;;;;;5.32;100.00;98543.13;5002257;28;19922;-84
2024/02/12 10:35:07;;;;;;;;;;;;;;;5.35;100.00;98545.63;4992935;28;19921;-84
2024/02/12 10:37:33;;;;;;;;;;;;;;;5.31;100.00;98551.09;4994153;28;20296;-83
2024/02/12 10:40:00;;;;;;;;;;;;;;;5.33;100.00;98550.13;4992581;28;19934;-83
2024/02/12 10:42:35;;;;;;;;;;;;;;;5.28;100.00;98547.66;4994147;28;19925;-84
2024/02/12 10:45:01;;;;;;;;;;;;;;;5.29;100.00;98538.00;5011580;28;20333;-84
2024/02/12 10:47:26;;;;;;;;;;;;;;;5.31;100.00;98545.81;4993462;28;20011;-84
2024/02/12 10:49:52;;;;;;;;;;;;;;;5.36;100.00;98546.50;5011812;28;19940;-84
2024/02/12 10:52:18;;;;;;;;;;;;;;;5.28;100.00;98550.31;5011792;28;19921;-82
2024/02/12 10:54:43;;;;;;;;;;;;;;;5.29;100.00;98545.88;5011028;28;19971;-84
2024/02/12 10:57:09;;;;;;;;;;;;;;;5.29;100.00;98551.16;4994040;28;19932;-83
2024/02/12 10:59:35;;;;;;;;;;;;;;;5.35;100.00;98545.63;5009850;28;19925;-82
2024/02/12 11:02:11;;;;;;;;;;;;;;;5.27;100.00;98552.97;5011991;28;19914;-83
2024/02/12 11:04:40;;;;;;;;;;;;;;;5.29;100.00;98551.16;5011874;28;19921;-86
2024/02/12 11:07:27;;;;;;;;;;;;;;;5.31;100.00;98548.44;5011977;28;20428;-86
2024/02/12 11:10:03;;;;;;;;;;;;;;;5.23;100.00;98554.00;4992399;28;19928;-84
2024/02/12 11:12:33;;;;;;;;;;;;;;;5.26;100.00;98554.78;5009223;28;19936;-83
2024/02/12 11:14:59;;;;;;;;;;;;;;;5.32;100.00;98558.06;5011112;28;20304;-84
2024/02/12 11:17:27;;;;;;;;;;;;;;;5.32;100.00;98551.03;4994047;28;19924;-84
2024/02/12 11:19:53;;;;;;;;;;;;;;;5.28;100.00;98552.06;5001696;28;19926;-83
2024/02/12 11:22:28;;;;;;;;;;;;;;;5.27;100.00;98556.47;5011694;28;19928;-84
2024/02/12 11:24:59;;;;;;;;;;;;;;;5.25;100.00;98557.47;5010016;28;19921;-83
2024/02/12 11:27:26;;;;;;;;;;;;;;;5.24;100.00;98555.72;5011522;28;19948;-84
2024/02/12 11:29:52;;;;;;;;;;;;;;;5.33;100.00;98562.38;5010989;28;19926;-83
2024/02/12 11:32:20;;;;;;;;;;;;;;;5.30;100.00;98565.13;4993978;28;19921;-84
2024/02/12 11:34:45;;;;;;;;;;;;;;;5.32;100.00;98568.56;5011400;28;19925;-83
2024/02/12 11:37:17;;;;;;;;;;;;;;;5.30;100.00;98575.63;5011799;28;19917;-84
2024/02/12 11:39:42;;;;;;;;;;;;;;;5.31;100.00;98567.69;5009420;28;20377;-83
2024/02/12 11:42:09;;;;;;;;;;;;;;;5.23;100.00;98575.03;4993449;28;19927;-84
2024/02/12 11:44:35;;;;;;;;;;;;;;;5.25;100.00;98570.59;5011277;28;19971;-86
2024/02/12 11:47:00;;;;;;;;;;;;;;;5.25;100.00;98581.94;5012131;28;20319;-87
2024/02/12 11:49:25;;;;;;;;;;;;;;;5.28;100.00;98576.56;4997143;28;19926;-87
2024/02/12 11:51:51;;;;;;;;;;;;;;;5.28;100.00;98570.44;4997571;28;20459;-85
2024/02/12 11:54:17;;;;;;;;;;;;;;;5.30;100.00;98576.50;4995384;28;20011;-86
2024/02/12 11:56:45;;;;;;;;;;;;;;;5.25;100.00;98579.31;4997000;28;20004;-86
2024/02/12 11:59:10;;;;;;;;;;;;;;;5.23;100.00;98580.28;5014854;28;20368;-85
2024/02/12 12:01:37;;;;;;;;;;;;;;;5.22;100.00;98587.31;5014879;28;19987;-86
2024/02/12 12:04:02;;;;;;;;;;;;;;;5.24;100.00;98584.63;4996042;28;20368;-88
2024/02/12 12:06:31;;;;;;;;;;;;;;;5.27;100.00;98587.13;4996486;28;19921;-87
2024/02/12 12:08:57;;;;;;;;;;;;;;;5.25;100.00;98597.69;5013115;28;20153;-88
2024/02/12 12:11:22;;;;;;;;;;;;;;;5.33;100.00;98588.63;4995528;28;19928;-83
2024/02/12 12:13:49;;;;;;;;;;;;;;;5.33;100.00;98591.25;5014692;28;19922;-83
2024/02/12 12:16:17;;;;;;;;;;;;;;;5.30;100.00;98596.63;5005668;28;20719;-88
2024/02/12 12:18:42;;;;;;;;;;;;;;;5.28;100.00;98584.44;5014757;28;19917;-86
2024/02/12 12:21:08;;;;;;;;;;;;;;;5.28;100.00;98587.06;5014788;28;19922;-85
2024/02/12 12:23:34;;;;;;;;;;;;;;;5.31;100.00;98588.69;5013391;28;20448;-88
2024/02/12 12:26:00;;;;;;;;;;;;;;;5.31;100.00;98590.47;5013179;28;19956;-87
2024/02/12 12:28:25;;;;;;;;;;;;;;;5.34;100.00;98593.00;4996563;28;19973;-86
2024/02/12 12:30:50;;;;;;;;;;;;;;;5.32;100.00;98584.31;4996756;28;19921;-87
2024/02/12 12:33:16;;;;;;;;;;;;;;;5.36;100.00;98591.16;5014587;28;19921;-91
2024/02/12 12:35:41;;;;;;;;;;;;;;;5.26;100.00;98602.03;5014064;28;19964;-85
2024/02/12 12:38:10;;;;;;;;;;;;;;;5.25;100.00;98602.94;5008971;28;19921;-86
2024/02/12 12:40:35;;;;;;;;;;;;;;;5.34;100.00;98596.47;5002186;28;19932;-86
2024/02/12 12:43:01;;;;;;;;;;;;;;;5.29;100.00;98606.31;4986632;28;19917;-85
2024/02/12 12:45:26;;;;;;;;;;;;;;;5.32;100.00;98608.81;5003795;28;19925;-85
2024/02/12 12:47:51;;;;;;;;;;;;;;;5.32;100.00;98608.81;5004313;28;19972;-84
2024/02/12 12:50:17;;;;;;;;;;;;;;;5.36;100.00;98606.91;5002852;28;20053;-88
2024/02/12 12:52:54;;;;;;;;;;;;;;;5.33;100.00;98612.28;5004403;28;19964;-86
2024/02/12 12:55:19;;;;;;;;;;;;;;;5.33;100.00;98610.53;5003274;28;19925;-86
2024/02/12 12:57:44;;;;;;;;;;;;;;;5.32;100.00;98611.44;5004246;28;19925;-86
2024/02/12 13:00:18;;;;;;;;;;;;;;;5.33;100.00;98617.53;5002517;28;19922;-88
2024/02/12 13:02:44;;;;;;;;;;;;;;;5.33;100.00;98610.53;5002682;28;19945;-86
2024/02/12 13:05:12;;;;;;;;;;;;;;;5.32;100.00;98619.31;5004514;28;20397;-84
2024/02/12 13:07:37;;;;;;;;;;;;;;;5.34;100.00;98624.50;4986178;28;19917;-83
2024/02/12 13:10:03;;;;;;;;;;;;;;;5.36;100.00;98623.53;5002701;28;19925;-84
2024/02/12 13:12:32;;;;;;;;;;;;;;;5.36;100.00;98633.19;5003928;28;19926;-84
2024/02/12 13:14:58;;;;;;;;;;;;;;;5.33;100.00;98633.28;5003578;28;19949;-84
2024/02/12 13:17:24;;;;;;;;;;;;;;;5.30;100.00;98633.41;5002815;28;19926;-85
2024/02/12 13:19:50;;;;;;;;;;;;;;;5.28;100.00;98631.72;5003859;28;19925;-84
2024/02/12 13:22:16;;;;;;;;;;;;;;;5.32;100.00;98645.59;5001704;28;20067;-84
2024/02/12 13:24:43;;;;;;;;;;;;;;;5.28;100.00;98650.13;5002757;28;20427;-84
2024/02/12 13:27:10;;;;;;;;;;;;;;;5.28;100.00;98643.97;4985104;28;19929;-84
2024/02/12 13:29:36;;;;;;;;;;;;;;;5.35;100.00;98642.00;5004014;28;19922;-83
2024/02/12 13:32:02;;;;;;;;;;;;;;;5.24;100.00;98642.41;5002939;28;19932;-86
2024/02/12 13:34:28;;;;;;;;;;;;;;;5.28;100.00;98636.97;5003155;28;20012;-86
2024/02/12 13:36:53;;;;;;;;;;;;;;;5.31;100.00;98645.63;4985296;28;19925;-84
2024/02/12 13:39:19;;;;;;;;;;;;;;;5.25;100.00;98646.75;5001508;28;19937;-85
2024/02/12 13:41:46;;;;;;;;;;;;;;;5.22;100.00;98647.72;5003450;28;19932;-85
2024/02/12 13:44:12;;;;;;;;;;;;;;;5.25;100.00;98652.00;5003622;28;20297;-93
2024/02/12 13:46:38;;;;;;;;;;;;;;;5.24;100.00;98660.78;4986507;28;19976;-85
2024/02/12 13:49:03;;;;;;;;;;;;;;;5.24;100.00;98664.25;5003445;28;19921;-86
2024/02/12 13:51:28;;;;;;;;;;;;;;;5.27;100.00;98665.94;5003137;28;19965;-85
2024/02/12 13:53:53;;;;;;;;;;;;;;;5.19;100.00;98670.63;5001799;28;20344;-89
2024/02/12 13:56:24;;;;;;;;;;;;;;;5.25;100.00;98666.00;5000667;28;19922;-85
2024/02/12 13:58:49;;;;;;;;;;;;;;;5.18;100.00;98661.88;5003268;28;19917;-85
2024/02/12 14:01:15;;;;;;;;;;;;;;;5.21;100.00;98667.00;5003053;28;19942;-84
2024/02/12 14:03:41;;;;;;;;;;;;;;;5.20;100.00;98667.94;5002543;28;20562;-85
2024/02/12 14:06:06;;;;;;;;;;;;;;;5.23;100.00;98675.72;5001332;28;19925;-85
2024/02/12 14:08:31;;;;;;;;;;;;;;;5.14;100.00;98686.56;5002931;28;19921;-86
2024/02/12 14:11:00;;;;;;;;;;;;;;;5.20;100.00;98693.34;5000799;28;19925;-84
2024/02/12 14:13:25;;;;;;;;;;;;;;;5.20;100.00;98694.22;5001976;28;20102;-85
2024/02/12 14:15:50;;;;;;;;;;;;;;;5.19;100.00;98702.16;5003589;28;19996;-87
2024/02/12 14:18:16;;;;;;;;;;;;;;;5.20;100.00;98706.47;4985316;28;19953;-83
2024/02/12 14:20:41;;;;;;;;;;;;;;;5.19;100.00;98721.38;5002565;28;19922;-83
2024/02/12 14:23:09;;;;;;;;;;;;;;;5.20;100.00;98717.84;5002644;28;19925;-83
2024/02/12 14:25:34;;;;;;;;;;;;;;;5.16;100.00;98715.38;5000819;28;20270;-83
2024/02/12 14:28:00;;;;;;;;;;;;;;;5.15;100.00;98719.75;5002721;28;19924;-83
2024/02/12 14:30:26;;;;;;;;;;;;;;;5.18;100.00;98722.28;4985329;28;20391;-84
2024/02/12 14:32:52;;;;;;;;;;;;;;;5.21;100.00;98727.41;4985125;28;20381;-83
2024/02/12 14:35:18;;;;;;;;;;;;;;;5.15;100.00;98724.16;5002331;28;19924;-83
2024/02/12 14:37:45;;;;;;;;;;;;;;;5.16;100.00;98731.16;5001829;28;19921;-85
2024/02/12 14:40:11;;;;;;;;;;;;;;;5.17;100.00;98732.84;4983650;28;20392;-89
2024/02/12 14:42:37;;;;;;;;;;;;;;;5.17;100.00;98732.84;5002749;28;19929;-85
2024/02/12 14:45:05;;;;;;;;;;;;;;;5.17;100.00;98732.84;5001508;28;19921;-84
2024/02/12 14:47:30;;;;;;;;;;;;;;;5.12;100.00;98732.16;5002056;28;19997;-84
2024/02/12 14:49:56;;;;;;;;;;;;;;;5.07;100.00;98738.47;5002870;28;19922;-84
2024/02/12 14:52:22;;;;;;;;;;;;;;;5.12;100.00;98743.50;5001044;28;19968;-85
2024/02/12 14:54:47;;;;;;;;;;;;;;;5.06;100.00;98736.72;5001496;28;19921;-85
2024/02/12 14:57:13;;;;;;;;;;;;;;;5.12;100.00;98748.75;5001603;28;20292;-85
2024/02/12 14:59:39;;;;;;;;;;;;;;;5.09;100.00;98751.53;5000294;28;19975;-85
2024/02/12 15:02:07;;;;;;;;;;;;;;;5.02;100.00;98752.66;5002380;28;20297;-85
2024/02/12 15:04:32;;;;;;;;;;;;;;;5.06;100.00;98747.25;5001135;28;19922;-85
2024/02/12 15:06:58;;;;;;;;;;;;;;;5.09;100.00;98752.38;5000781;28;19926;-83
2024/02/12 15:09:24;;;;;;;;;;;;;;;5.12;100.00;98756.63;5000625;28;20369;-84
2024/02/12 15:11:53;;;;;;;;;;;;;;;5.15;100.00;98756.53;5002131;28;20016;-85
2024/02/12 15:14:19;;;;;;;;;;;;;;;5.12;100.00;98758.41;5001974;28;19921;-85
2024/02/12 15:16:48;;;;;;;;;;;;;;;5.07;100.00;98763.84;5001892;28;19961;-84
2024/02/12 15:19:13;;;;;;;;;;;;;;;5.18;100.00;98768.69;4985089;28;19921;-85
2024/02/12 15:21:38;;;;;;;;;;;;;;;5.09;100.00;98772.53;5003208;28;19921;-85
2024/02/12 15:24:04;;;;;;;;;;;;;;;5.12;100.00;98771.56;4986077;28;19922;-84
2024/02/12 15:26:29;;;;;;;;;;;;;;;5.07;100.00;98775.22;5005545;28;19979;-83
2024/02/12 15:28:54;;;;;;;;;;;;;;;5.05;100.00;98786.69;4988432;28;19925;-86
2024/02/12 15:31:19;;;;;;;;;;;;;;;5.03;100.00;98785.88;4987439;28;19925;-84
2024/02/12 15:33:45;;;;;;;;;;;;;;;5.08;100.00;98791.81;5005303;28;20008;-83
2024/02/12 15:36:10;;;;;;;;;;;;;;;5.04;100.00;98791.09;5004659;28;19934;-84
2024/02/12 15:38:36;;;;;;;;;;;;;;;5.03;100.00;98796.38;4987877;28;19926;-84
2024/02/12 15:41:01;;;;;;;;;;;;;;;5.06;100.00;98791.03;5004094;28;20296;-84
2024/02/12 15:43:26;;;;;;;;;;;;;;;5.03;100.00;98806.88;4987613;28;19922;-83
2024/02/12 15:45:54;;;;;;;;;;;;;;;5.00;100.00;98799.13;5005371;28;19926;-85
2024/02/12 15:48:24;;;;;;;;;;;;;;;5.01;100.00;98800.81;5005051;28;20387;-84
2024/02/12 15:50:50;;;;;;;;;;;;;;;5.01;100.00;98808.69;5005086;28;19944;-83
2024/02/12 15:53:16;;;;;;;;;;;;;;;5.02;100.00;98806.00;5005538;28;20365;-83
2024/02/12 15:55:42;;;;;;;;;;;;;;;4.98;100.00;98809.69;5004191;28;20458;-85
2024/02/12 15:58:09;;;;;;;;;;;;;;;5.01;100.00;98816.56;5005227;28;20020;-84
2024/02/12 16:00:40;;;;;;;;;;;;;;;4.94;100.00;98818.56;5005040;28;19918;-84
2024/02/12 16:03:05;;;;;;;;;;;;;;;4.95;100.00;98822.91;4987480;28;19925;-87
2024/02/12 16:05:49;;;;;;;;;;;;;;;4.91;100.00;98824.78;4986973;28;20479;-86
2024/02/12 16:08:17;;;;;;;;;;;;;;;4.93;100.00;98822.13;5004495;28;20016;-86
2024/02/12 16:10:42;;;;;;;;;;;;;;;4.96;100.00;98823.75;4986854;28;19921;-83
2024/02/12 16:13:08;;;;;;;;;;;;;;;4.96;100.00;98837.72;4987034;28;20284;-90
2024/02/12 16:15:36;;;;;;;;;;;;;;;4.95;100.00;98838.66;5003372;28;19925;-84
2024/02/12 16:18:02;;;;;;;;;;;;;;;4.98;100.00;98845.56;5005371;28;19925;-88
2024/02/12 16:20:27;;;;;;;;;;;;;;;4.99;100.00;98839.41;5005073;28;19918;-84
2024/02/12 16:22:53;;;;;;;;;;;;;;;4.99;100.00;98849.91;5005204;28;19964;-88
2024/02/12 16:25:18;;;;;;;;;;;;;;;5.02;100.00;98855.91;5003652;28;19918;-82
2024/02/12 16:27:43;;;;;;;;;;;;;;;4.96;100.00;98860.50;5004554;28;19928;-84
2024/02/12 16:30:09;;;;;;;;;;;;;;;4.98;100.00;98862.19;5004525;28;19990;-84
2024/02/12 16:32:35;;;;;;;;;;;;;;;4.98;100.00;98866.56;5004604;28;20397;-84
2024/02/12 16:35:00;;;;;;;;;;;;;;;4.88;100.00;98874.78;4985682;28;19917;-87
2024/02/12 16:37:30;;;;;;;;;;;;;;;4.99;100.00;98870.91;4996836;28;19926;-83
2024/02/12 16:39:55;;;;;;;;;;;;;;;4.96;100.00;98879.75;5003449;28;19925;-83
2024/02/12 16:42:20;;;;;;;;;;;;;;;4.98;100.00;98874.44;5004682;28;19913;-87
2024/02/12 16:44:46;;;;;;;;;;;;;;;5.03;100.00;98894.38;4986518;28;19957;-84
2024/02/12 16:47:11;;;;;;;;;;;;;;;4.97;100.00;98906.88;5004050;28;19918;-86
2024/02/12 16:49:37;;;;;;;;;;;;;;;4.95;100.00;98906.06;5002631;28;20049;-85
2024/02/12 16:52:02;;;;;;;;;;;;;;;5.02;100.00;98918.91;4986150;28;20368;-85
2024/02/12 16:54:28;;;;;;;;;;;;;;;4.96;100.00;98913.88;5002238;28;19921;-86
2024/02/12 16:56:56;;;;;;;;;;;;;;;5.00;100.00;98919.91;5003618;28;19926;-88
2024/02/12 16:59:21;;;;;;;;;;;;;;;5.00;100.00;98917.28;5004258;28;19924;-87
2024/02/12 17:01:47;;;;;;;;;;;;;;;5.00;100.00;98923.38;4987997;28;19921;-87
2024/02/12 17:04:13;;;;;;;;;;;;;;;5.01;100.00;98930.34;5004017;28;20365;-85
2024/02/12 17:06:38;;;;;;;;;;;;;;;4.98;100.00;98937.44;5003951;28;19918;-87
2024/02/12 17:09:07;;;;;;;;;;;;;;;4.98;100.00;98947.94;4984038;28;20013;-86